createdAt,value
2018-10-21T00:00:39.836Z,96271.00
2018-10-21T00:03:10.664Z,96272.00
2018-10-21T00:05:41.696Z,96263.00
2018-10-21T00:08:12.596Z,96258.00
2018-10-21T00:10:43.376Z,96252.00
2018-10-21T00:13:14.208Z,96258.00
2018-10-21T00:15:45.088Z,96258.00
2018-10-21T00:18:15.914Z,96254.00
2018-10-21T00:20:46.696Z,96249.00
2018-10-21T00:23:17.516Z,96250.00
2018-10-21T00:25:48.356Z,96255.00
2018-10-21T00:28:19.200Z,96247.00
2018-10-21T00:30:49.996Z,96246.00
2018-10-21T00:33:20.813Z,96242.00
2018-10-21T00:35:51.659Z,96241.00
2018-10-21T00:38:22.432Z,96240.00
2018-10-21T00:40:53.236Z,96241.00
2018-10-21T00:43:24.032Z,96238.00
2018-10-21T00:45:54.799Z,96247.00
2018-10-21T00:48:25.790Z,96247.00
2018-10-21T00:50:56.729Z,96253.00
2018-10-21T00:53:27.565Z,96258.00
2018-10-21T00:55:58.356Z,96254.00
2018-10-21T00:58:29.254Z,96256.00
2018-10-21T01:01:00.204Z,96251.00
2018-10-21T01:03:31.096Z,96257.00
2018-10-21T01:06:02.056Z,96257.00
2018-10-21T01:08:32.996Z,96256.00
2018-10-21T01:11:04.016Z,96251.00
2018-10-21T01:13:34.900Z,96248.00
2018-10-21T01:16:05.915Z,96254.00
2018-10-21T01:18:36.812Z,96256.00
2018-10-21T01:21:07.737Z,96253.00
2018-10-21T01:23:38.536Z,96247.00
2018-10-21T01:26:09.314Z,96246.00
2018-10-21T01:28:40.116Z,96243.00
2018-10-21T01:31:10.935Z,96248.00
2018-10-21T01:33:41.711Z,96242.00
2018-10-21T01:36:12.597Z,96227.00
2018-10-21T01:38:43.376Z,96227.00
2018-10-21T01:41:14.156Z,96229.00
2018-10-21T01:43:45.036Z,96235.00
2018-10-21T01:46:15.867Z,96231.00
2018-10-21T01:48:46.752Z,96221.00
2018-10-21T01:51:17.621Z,96217.00
2018-10-21T01:53:48.376Z,96225.00
2018-10-21T01:56:19.215Z,96224.00
2018-10-21T01:58:50.039Z,96226.00
2018-10-21T02:01:20.848Z,96218.00
2018-10-21T02:03:51.956Z,96220.00
2018-10-21T02:06:22.699Z,96217.00
2018-10-21T02:08:53.550Z,96209.00
2018-10-21T02:11:24.296Z,96208.00
2018-10-21T02:13:55.156Z,96208.00
2018-10-21T02:16:26.848Z,96203.00
2018-10-21T02:18:57.636Z,96199.00
2018-10-21T02:21:28.496Z,96201.00
2018-10-21T02:23:59.270Z,96196.00
2018-10-21T02:26:30.119Z,96196.00
2018-10-21T02:29:00.921Z,96188.00
2018-10-21T02:31:31.645Z,96195.00
2018-10-21T02:34:02.460Z,96193.00
2018-10-21T02:36:33.288Z,96188.00
2018-10-21T02:39:04.461Z,96186.00
2018-10-21T02:41:56.276Z,96190.00
2018-10-21T02:44:27.176Z,96182.00
2018-10-21T02:46:58.456Z,96177.00
2018-10-21T02:49:29.316Z,96175.00
2018-10-21T02:52:05.128Z,96178.00
2018-10-21T02:54:36.788Z,96171.00
2018-10-21T02:57:12.787Z,96174.00
2018-10-21T02:59:43.552Z,96177.00
2018-10-21T03:02:14.377Z,96181.00
2018-10-21T03:04:45.200Z,96180.00
2018-10-21T03:07:15.969Z,96185.00
2018-10-21T03:09:46.748Z,96181.00
2018-10-21T03:12:17.437Z,96183.00
2018-10-21T03:14:48.300Z,96180.00
2018-10-21T03:17:19.096Z,96182.00
2018-10-21T03:19:49.932Z,96181.00
2018-10-21T03:22:20.736Z,96179.00
2018-10-21T03:24:51.575Z,96183.00
2018-10-21T03:27:22.285Z,96184.00
2018-10-21T03:29:53.116Z,96177.00
2018-10-21T03:32:23.876Z,96181.00
2018-10-21T03:34:54.676Z,96187.00
2018-10-21T03:37:25.487Z,96198.00
2018-10-21T03:39:56.394Z,96200.00
2018-10-21T03:42:27.087Z,96197.00
2018-10-21T03:44:57.903Z,96198.00
2018-10-21T03:47:28.735Z,96206.00
2018-10-21T03:49:59.723Z,96204.00
2018-10-21T03:52:30.552Z,96209.00
2018-10-21T03:55:01.395Z,96203.00
2018-10-21T03:57:32.170Z,96212.00
2018-10-21T04:00:02.996Z,96221.00
2018-10-21T04:02:33.796Z,96220.00
2018-10-21T04:05:04.567Z,96221.00
2018-10-21T04:07:35.457Z,96217.00
2018-10-21T04:10:06.528Z,96211.00
2018-10-21T04:12:37.341Z,96209.00
2018-10-21T04:15:08.840Z,96205.00
2018-10-21T04:17:39.696Z,96206.00
2018-10-21T04:20:10.576Z,96196.00
2018-10-21T04:22:47.234Z,96194.00
2018-10-21T04:25:18.136Z,96192.00
2018-10-21T04:27:49.235Z,96185.00
2018-10-21T04:30:22.458Z,96194.00
2018-10-21T04:33:04.092Z,96200.00
2018-10-21T04:35:35.139Z,96194.00
2018-10-21T04:38:46.135Z,96182.00
2018-10-21T04:41:16.895Z,96196.00
2018-10-21T04:43:47.767Z,96203.00
2018-10-21T04:46:18.616Z,96210.00
2018-10-21T04:48:49.407Z,96202.00
2018-10-21T04:51:20.191Z,96192.00
2018-10-21T04:53:51.015Z,96197.00
2018-10-21T04:56:21.835Z,96197.00
2018-10-21T04:58:52.598Z,96186.00
2018-10-21T05:01:23.360Z,96172.00
2018-10-21T05:03:54.157Z,96161.00
2018-10-21T05:06:25.111Z,96163.00
2018-10-21T05:08:56.187Z,96185.00
2018-10-21T05:11:26.946Z,96192.00
2018-10-21T05:13:57.775Z,96193.00
2018-10-21T05:16:28.628Z,96194.00
2018-10-21T05:18:59.388Z,96195.00
2018-10-21T05:21:30.255Z,96191.00
2018-10-21T05:24:01.083Z,96177.00
2018-10-21T05:26:31.773Z,96167.00
2018-10-21T05:29:02.467Z,96160.00
2018-10-21T05:31:33.228Z,96170.00
2018-10-21T05:34:03.916Z,96175.00
2018-10-21T05:36:34.644Z,96182.00
2018-10-21T05:39:07.578Z,96186.00
2018-10-21T05:41:40.104Z,96181.00
2018-10-21T05:44:10.820Z,96176.00
2018-10-21T05:46:52.120Z,96176.00
2018-10-21T05:49:22.863Z,96181.00
2018-10-21T05:51:53.935Z,96172.00
2018-10-21T05:54:25.930Z,96171.00
2018-10-21T05:56:56.686Z,96159.00
2018-10-21T05:59:27.495Z,96150.00
2018-10-21T06:01:58.276Z,96156.00
2018-10-21T06:04:28.887Z,96158.00
2018-10-21T06:06:59.615Z,96164.00
2018-10-21T06:09:32.191Z,96160.00
2018-10-21T06:12:03.955Z,96153.00
2018-10-21T06:14:34.639Z,96145.00
2018-10-21T06:17:11.001Z,96158.00
2018-10-21T06:19:48.777Z,96168.00
2018-10-21T06:22:20.608Z,96169.00
2018-10-21T06:24:51.996Z,96171.00
2018-10-21T06:27:25.884Z,96163.00
2018-10-21T06:29:56.761Z,96161.00
2018-10-21T06:32:27.530Z,96161.00
2018-10-21T06:34:58.896Z,96169.00
2018-10-21T06:37:29.999Z,96183.00
2018-10-21T06:40:02.930Z,96195.00
2018-10-21T06:42:33.951Z,96191.00
2018-10-21T06:45:06.137Z,96183.00
2018-10-21T06:47:42.866Z,96183.00
2018-10-21T06:50:17.868Z,96187.00
2018-10-21T06:52:49.579Z,96182.00
2018-10-21T06:55:21.036Z,96192.00
2018-10-21T06:57:51.835Z,96193.00
2018-10-21T07:00:22.588Z,96198.00
2018-10-21T07:02:53.335Z,96187.00
2018-10-21T07:05:41.628Z,96192.00
2018-10-21T07:08:12.568Z,96189.00
2018-10-21T07:10:43.769Z,96188.00
2018-10-21T07:13:14.956Z,96195.00
2018-10-21T07:15:46.061Z,96199.00
2018-10-21T07:18:17.148Z,96206.00
2018-10-21T07:20:48.111Z,96210.00
2018-10-21T07:23:18.847Z,96203.00
2018-10-21T07:25:49.674Z,96204.00
2018-10-21T07:28:21.179Z,96212.00
2018-10-21T07:30:52.254Z,96212.00
2018-10-21T07:33:23.194Z,96216.00
2018-10-21T07:35:54.137Z,96211.00
2018-10-21T07:38:25.047Z,96208.00
2018-10-21T07:40:56.256Z,96199.00
2018-10-21T07:43:27.156Z,96201.00
2018-10-21T07:45:58.318Z,96202.00
2018-10-21T07:48:29.098Z,96204.00
2018-10-21T07:50:59.871Z,96209.00
2018-10-21T07:53:30.648Z,96206.00
2018-10-21T07:56:01.673Z,96202.00
2018-10-21T07:58:32.376Z,96201.00
2018-10-21T08:01:03.305Z,96202.00
2018-10-21T08:03:34.359Z,96205.00
2018-10-21T08:07:31.788Z,96205.00
2018-10-21T08:10:05.889Z,96207.00
2018-10-21T08:12:36.675Z,96210.00
2018-10-21T08:15:07.926Z,96219.00
2018-10-21T08:17:38.889Z,96218.00
2018-10-21T08:20:10.012Z,96219.00
2018-10-21T08:22:40.873Z,96224.00
2018-10-21T08:25:12.226Z,96236.00
2018-10-21T08:27:43.396Z,96237.00
2018-10-21T08:30:14.412Z,96231.00
2018-10-21T08:32:45.334Z,96239.00
2018-10-21T08:35:16.193Z,96239.00
2018-10-21T08:37:47.127Z,96247.00
2018-10-21T08:40:17.821Z,96250.00
2018-10-21T08:42:52.782Z,96250.00
2018-10-21T08:45:27.420Z,96245.00
2018-10-21T08:47:58.270Z,96241.00
2018-10-21T08:50:29.990Z,96234.00
2018-10-21T08:53:01.079Z,96232.00
2018-10-21T08:55:31.847Z,96236.00
2018-10-21T08:58:02.614Z,96234.00
2018-10-21T09:00:33.512Z,96242.00
2018-10-21T09:03:04.437Z,96239.00
2018-10-21T09:05:35.288Z,96232.00
2018-10-21T09:08:06.713Z,96229.00
2018-10-21T09:10:37.632Z,96231.00
2018-10-21T09:13:09.072Z,96223.00
2018-10-21T09:15:40.085Z,96219.00
2018-10-21T09:18:10.992Z,96220.00
2018-10-21T09:20:42.255Z,96220.00
2018-10-21T09:23:13.558Z,96226.00
2018-10-21T09:25:44.600Z,96220.00
2018-10-21T09:28:18.648Z,96221.00
2018-10-21T09:30:49.956Z,96221.00
2018-10-21T09:33:20.933Z,96220.00
2018-10-21T09:35:51.662Z,96219.00
2018-10-21T09:38:22.555Z,96216.00
2018-10-21T09:40:53.563Z,96225.00
2018-10-21T09:43:24.457Z,96218.00
2018-10-21T09:45:55.322Z,96217.00
2018-10-21T09:48:27.192Z,96214.00
2018-10-21T09:50:58.081Z,96224.00
2018-10-21T09:53:29.346Z,96218.00
2018-10-21T09:56:00.226Z,96218.00
2018-10-21T09:58:31.755Z,96214.00
2018-10-21T10:01:07.735Z,96209.00
2018-10-21T10:03:38.737Z,96215.00
2018-10-21T10:06:09.520Z,96208.00
2018-10-21T10:08:40.512Z,96213.00
2018-10-21T10:11:11.456Z,96202.00
2018-10-21T10:13:42.779Z,96204.00
2018-10-21T10:16:13.720Z,96194.00
2018-10-21T10:18:44.647Z,96193.00
2018-10-21T10:21:15.456Z,96190.00
2018-10-21T10:23:46.388Z,96180.00
2018-10-21T10:26:17.280Z,96178.00
2018-10-21T10:28:48.196Z,96183.00
2018-10-21T10:31:19.008Z,96174.00
2018-10-21T10:33:49.852Z,96179.00
2018-10-21T10:36:20.756Z,96178.00
2018-10-21T10:38:51.576Z,96183.00
2018-10-21T10:41:22.635Z,96180.00
2018-10-21T10:43:53.411Z,96179.00
2018-10-21T10:46:24.255Z,96171.00
2018-10-21T10:48:55.250Z,96180.00
2018-10-21T10:51:26.058Z,96177.00
2018-10-21T10:53:56.951Z,96172.00
2018-10-21T10:56:27.881Z,96166.00
2018-10-21T10:58:58.668Z,96161.00
2018-10-21T11:01:29.773Z,96145.00
2018-10-21T11:04:01.101Z,96142.00
2018-10-21T11:06:31.956Z,96139.00
2018-10-21T11:09:07.365Z,96130.00
2018-10-21T11:11:37.987Z,96113.00
2018-10-21T11:14:15.202Z,96112.00
2018-10-21T11:16:46.254Z,96109.00
2018-10-21T11:19:19.905Z,96099.00
2018-10-21T11:21:50.886Z,96090.00
2018-10-21T11:24:21.723Z,96085.00
2018-10-21T11:26:52.579Z,96086.00
2018-10-21T11:29:23.579Z,96080.00
2018-10-21T11:31:54.317Z,96074.00
2018-10-21T11:34:25.147Z,96070.00
2018-10-21T11:36:55.828Z,96065.00
2018-10-21T11:39:26.663Z,96062.00
2018-10-21T11:41:57.410Z,96057.00
2018-10-21T11:44:28.378Z,96051.00
2018-10-21T11:47:00.379Z,96042.00
2018-10-21T11:49:31.654Z,96049.00
2018-10-21T11:52:03.505Z,96047.00
2018-10-21T11:54:34.276Z,96054.00
2018-10-21T11:57:05.600Z,96048.00
2018-10-21T11:59:38.089Z,96042.00
2018-10-21T12:02:09.008Z,96046.00
2018-10-21T12:04:39.817Z,96057.00
2018-10-21T12:07:10.878Z,96057.00
2018-10-21T12:09:41.771Z,96065.00
2018-10-21T12:12:12.557Z,96063.00
2018-10-21T12:14:43.637Z,96066.00
2018-10-21T12:17:14.774Z,96068.00
2018-10-21T12:19:45.751Z,96069.00
2018-10-21T12:22:18.779Z,96077.00
2018-10-21T12:24:49.708Z,96074.00
2018-10-21T12:27:20.540Z,96075.00
2018-10-21T12:29:51.355Z,96075.00
2018-10-21T12:32:22.265Z,96077.00
2018-10-21T12:34:53.246Z,96077.00
2018-10-21T12:37:24.096Z,96073.00
2018-10-21T12:39:55.775Z,96070.00
2018-10-21T12:42:26.528Z,96070.00
2018-10-21T12:44:57.713Z,96067.00
2018-10-21T12:47:28.532Z,96062.00
2018-10-21T12:49:59.776Z,96059.00
2018-10-21T12:52:30.722Z,96058.00
2018-10-21T12:55:01.658Z,96057.00
2018-10-21T12:57:32.568Z,96060.00
2018-10-21T13:00:03.492Z,96058.00
2018-10-21T13:02:35.136Z,96061.00
2018-10-21T13:05:06.632Z,96065.00
2018-10-21T13:07:37.412Z,96060.00
2018-10-21T13:10:09.067Z,96062.00
2018-10-21T13:12:39.937Z,96060.00
2018-10-21T13:15:10.755Z,96064.00
2018-10-21T13:17:42.160Z,96059.00
2018-10-21T13:20:13.096Z,96058.00
2018-10-21T13:22:46.489Z,96059.00
2018-10-21T13:25:17.648Z,96065.00
2018-10-21T13:27:48.428Z,96063.00
2018-10-21T13:30:19.317Z,96063.00
2018-10-21T13:32:50.100Z,96057.00
2018-10-21T13:35:20.903Z,96075.00
2018-10-21T13:37:52.197Z,96078.00
2018-10-21T13:40:24.900Z,96074.00
2018-10-21T13:42:55.713Z,96066.00
2018-10-21T13:45:26.537Z,96078.00
2018-10-21T13:47:57.317Z,96079.00
2018-10-21T13:50:28.095Z,96079.00
2018-10-21T13:52:58.923Z,96086.00
2018-10-21T13:55:29.737Z,96077.00
2018-10-21T13:58:00.632Z,96072.00
2018-10-21T14:00:31.709Z,96079.00
2018-10-21T14:03:05.430Z,96081.00
2018-10-21T14:05:36.230Z,96077.00
2018-10-21T14:08:07.280Z,96072.00
2018-10-21T14:10:38.176Z,96067.00
2018-10-21T14:13:09.196Z,96077.00
2018-10-21T14:15:40.305Z,96067.00
2018-10-21T14:18:11.376Z,96071.00
2018-10-21T14:20:42.406Z,96079.00
2018-10-21T14:23:14.208Z,96075.00
2018-10-21T14:25:45.120Z,96079.00
2018-10-21T14:28:16.372Z,96080.00
2018-10-21T14:30:47.320Z,96063.00
2018-10-21T14:33:18.214Z,96066.00
2018-10-21T14:35:49.017Z,96064.00
2018-10-21T14:38:19.995Z,96065.00
2018-10-21T14:40:50.803Z,96066.00
2018-10-21T14:43:21.716Z,96064.00
2018-10-21T14:45:52.744Z,96063.00
2018-10-21T14:48:23.739Z,96062.00
2018-10-21T14:50:54.970Z,96064.00
2018-10-21T14:53:26.044Z,96060.00
2018-10-21T14:55:57.249Z,96064.00
2018-10-21T14:58:28.461Z,96062.00
2018-10-21T15:00:59.397Z,96064.00
2018-10-21T15:03:30.578Z,96062.00
2018-10-21T15:06:01.443Z,96059.00
2018-10-21T15:08:32.437Z,96054.00
2018-10-21T15:11:03.493Z,96060.00
2018-10-21T15:13:34.409Z,96053.00
2018-10-21T15:16:07.603Z,96064.00
2018-10-21T15:18:39.028Z,96065.00
2018-10-21T15:21:12.867Z,96059.00
2018-10-21T15:23:49.427Z,96058.00
2018-10-21T15:26:20.658Z,96062.00
2018-10-21T15:28:52.087Z,96054.00
2018-10-21T15:31:22.967Z,96053.00
2018-10-21T15:33:56.106Z,96054.00
2018-10-21T15:36:27.501Z,96045.00
2018-10-21T15:38:58.380Z,96042.00
2018-10-21T15:41:29.253Z,96035.00
2018-10-21T15:44:00.285Z,96040.00
2018-10-21T15:46:31.205Z,96034.00
2018-10-21T15:49:02.507Z,96040.00
2018-10-21T15:51:34.048Z,96043.00
2018-10-21T15:54:05.067Z,96040.00
2018-10-21T15:56:36.437Z,96042.00
2018-10-21T15:59:08.060Z,96043.00
2018-10-21T16:01:39.182Z,96049.00
2018-10-21T16:04:10.142Z,96048.00
2018-10-21T16:06:41.051Z,96059.00
2018-10-21T16:09:13.445Z,96059.00
2018-10-21T16:11:44.352Z,96056.00
2018-10-21T16:14:15.734Z,96062.00
2018-10-21T16:16:46.733Z,96061.00
2018-10-21T16:19:18.564Z,96060.00
2018-10-21T16:21:50.247Z,96062.00
2018-10-21T16:24:21.152Z,96068.00
2018-10-21T16:26:52.248Z,96070.00
2018-10-21T16:29:23.328Z,96069.00
2018-10-21T16:31:54.509Z,96070.00
2018-10-21T16:34:25.593Z,96074.00
2018-10-21T16:36:57.149Z,96078.00
2018-10-21T16:39:28.040Z,96075.00
2018-10-21T16:41:58.971Z,96080.00
2018-10-21T16:44:29.837Z,96077.00
2018-10-21T16:47:01.045Z,96078.00
2018-10-21T16:49:31.796Z,96085.00
2018-10-21T16:52:02.637Z,96085.00
2018-10-21T16:54:33.552Z,96079.00
2018-10-21T16:57:04.891Z,96083.00
2018-10-21T16:59:37.148Z,96085.00
2018-10-21T17:02:07.997Z,96089.00
2018-10-21T17:04:38.950Z,96093.00
2018-10-21T17:07:10.631Z,96091.00
2018-10-21T17:09:46.062Z,96095.00
2018-10-21T17:12:17.662Z,96094.00
2018-10-21T17:14:48.745Z,96093.00
2018-10-21T17:17:20.189Z,96093.00
2018-10-21T17:19:52.017Z,96091.00
2018-10-21T17:22:23.130Z,96093.00
2018-10-21T17:24:55.826Z,96095.00
2018-10-21T17:27:26.909Z,96092.00
2018-10-21T17:29:58.163Z,96096.00
2018-10-21T17:32:29.255Z,96096.00
2018-10-21T17:35:00.999Z,96096.00
2018-10-21T17:37:32.065Z,96100.00
2018-10-21T17:40:03.725Z,96103.00
2018-10-21T17:42:35.077Z,96110.00
2018-10-21T17:45:08.929Z,96119.00
2018-10-21T17:47:41.365Z,96117.00
2018-10-21T17:50:14.273Z,96123.00
2018-10-21T17:52:45.934Z,96130.00
2018-10-21T17:55:17.264Z,96127.00
2018-10-21T17:57:48.461Z,96126.00
2018-10-21T18:00:20.553Z,96123.00
2018-10-21T18:02:52.324Z,96122.00
2018-10-21T18:05:24.465Z,96119.00
2018-10-21T18:07:56.417Z,96128.00
2018-10-21T18:10:27.545Z,96134.00
2018-10-21T18:12:59.325Z,96129.00
2018-10-21T18:15:32.287Z,96129.00
2018-10-21T18:18:03.897Z,96126.00
2018-10-21T18:20:36.001Z,96134.00
2018-10-21T18:23:08.257Z,96130.00
2018-10-21T18:25:39.576Z,96132.00
2018-10-21T18:28:12.035Z,96127.00
2018-10-21T18:30:43.444Z,96130.00
2018-10-21T18:33:14.741Z,96135.00
2018-10-21T18:35:46.207Z,96133.00
2018-10-21T18:38:18.768Z,96138.00
2018-10-21T18:40:50.482Z,96134.00
2018-10-21T18:43:22.040Z,96129.00
2018-10-21T18:45:53.545Z,96132.00
2018-10-21T18:48:25.111Z,96128.00
2018-10-21T18:50:57.572Z,96134.00
2018-10-21T18:53:29.038Z,96131.00
2018-10-21T18:56:01.009Z,96136.00
2018-10-21T18:58:33.303Z,96134.00
2018-10-21T19:01:07.166Z,96139.00
2018-10-21T19:03:38.417Z,96134.00
2018-10-21T19:06:09.779Z,96136.00
2018-10-21T19:08:42.163Z,96137.00
2018-10-21T19:11:14.288Z,96142.00
2018-10-21T19:13:48.539Z,96145.00
2018-10-21T19:16:20.725Z,96152.00
2018-10-21T19:18:52.147Z,96155.00
2018-10-21T19:21:24.178Z,96153.00
2018-10-21T19:23:56.532Z,96154.00
2018-10-21T19:26:27.877Z,96154.00
2018-10-21T19:29:00.174Z,96163.00
2018-10-21T19:31:31.334Z,96167.00
2018-10-21T19:34:03.342Z,96171.00
2018-10-21T19:36:35.232Z,96174.00
2018-10-21T19:39:10.159Z,96173.00
2018-10-21T19:41:41.531Z,96171.00
2018-10-21T19:44:13.027Z,96172.00
2018-10-21T19:46:44.875Z,96172.00
2018-10-21T19:49:16.461Z,96176.00
2018-10-21T19:51:48.487Z,96172.00
2018-10-21T19:54:19.824Z,96177.00
2018-10-21T19:56:51.189Z,96177.00
2018-10-21T19:59:22.420Z,96175.00
2018-10-21T20:01:54.617Z,96178.00
2018-10-21T20:04:25.797Z,96167.00
2018-10-21T20:06:57.278Z,96170.00
2018-10-21T20:09:28.611Z,96172.00
2018-10-21T20:11:59.535Z,96166.00
2018-10-21T20:14:30.706Z,96163.00
2018-10-21T20:17:01.891Z,96161.00
2018-10-21T20:19:33.018Z,96155.00
2018-10-21T20:22:04.254Z,96158.00
2018-10-21T20:24:35.440Z,96154.00
2018-10-21T20:27:07.462Z,96165.00
2018-10-21T20:29:38.785Z,96165.00
2018-10-21T20:32:09.879Z,96159.00
2018-10-21T20:34:40.890Z,96157.00
2018-10-21T20:37:11.889Z,96156.00
2018-10-21T20:39:42.937Z,96153.00
2018-10-21T20:42:13.963Z,96148.00
2018-10-21T20:44:45.001Z,96150.00
2018-10-21T20:47:15.917Z,96147.00
2018-10-21T20:49:46.977Z,96147.00
2018-10-21T20:52:17.977Z,96141.00
2018-10-21T20:54:49.898Z,96140.00
2018-10-21T20:57:20.797Z,96143.00
2018-10-21T20:59:51.836Z,96144.00
2018-10-21T21:02:22.908Z,96131.00
2018-10-21T21:04:53.784Z,96133.00
2018-10-21T21:07:24.840Z,96132.00
2018-10-21T21:09:55.932Z,96131.00
2018-10-21T21:12:26.893Z,96132.00
2018-10-21T21:18:03.222Z,96138.00
2018-10-21T21:20:35.913Z,96137.00
2018-10-21T21:23:06.769Z,96138.00
2018-10-21T21:25:37.790Z,96139.00
2018-10-21T21:28:09.335Z,96138.00
2018-10-21T21:30:40.564Z,96136.00
2018-10-21T21:33:11.748Z,96141.00
2018-10-21T21:35:42.868Z,96141.00
2018-10-21T21:38:13.740Z,96141.00
2018-10-21T21:40:44.896Z,96151.00
2018-10-21T21:43:15.856Z,96151.00
2018-10-21T21:45:46.648Z,96142.00
2018-10-21T21:48:17.491Z,96145.00
2018-10-21T21:50:48.195Z,96145.00
2018-10-21T21:53:19.312Z,96144.00
2018-10-21T21:55:50.132Z,96140.00
2018-10-21T21:58:21.006Z,96146.00
2018-10-21T22:00:51.776Z,96145.00
2018-10-21T22:03:22.645Z,96139.00
2018-10-21T22:05:53.533Z,96147.00
2018-10-21T22:08:24.448Z,96135.00
2018-10-21T22:10:55.268Z,96139.00
2018-10-21T22:13:26.533Z,96136.00
2018-10-21T22:15:57.331Z,96140.00
2018-10-21T22:18:28.245Z,96140.00
2018-10-21T22:20:59.043Z,96140.00
2018-10-21T22:23:30.009Z,96141.00
2018-10-21T22:26:00.797Z,96140.00
2018-10-21T22:28:31.616Z,96136.00
2018-10-21T22:31:02.800Z,96135.00
2018-10-21T22:33:33.692Z,96140.00
2018-10-21T22:36:04.491Z,96146.00
2018-10-21T22:38:35.277Z,96133.00
2018-10-21T22:41:06.024Z,96141.00
2018-10-21T22:43:36.909Z,96147.00
2018-10-21T22:46:07.738Z,96152.00
2018-10-21T22:48:38.548Z,96152.00
2018-10-21T22:51:09.340Z,96154.00
2018-10-21T22:53:40.174Z,96147.00
2018-10-21T22:56:10.933Z,96156.00
2018-10-21T22:58:41.684Z,96155.00
2018-10-21T23:01:12.525Z,96154.00
2018-10-21T23:03:43.372Z,96157.00
2018-10-21T23:06:14.181Z,96156.00
2018-10-21T23:08:44.959Z,96159.00
2018-10-21T23:11:15.724Z,96157.00
2018-10-21T23:13:46.496Z,96157.00
2018-10-21T23:16:17.297Z,96149.00
2018-10-21T23:18:48.224Z,96156.00
2018-10-21T23:21:18.840Z,96162.00
2018-10-21T23:23:49.647Z,96160.00
2018-10-21T23:26:20.448Z,96161.00
2018-10-21T23:28:51.232Z,96157.00
2018-10-21T23:31:21.940Z,96161.00
2018-10-21T23:33:52.899Z,96157.00
2018-10-21T23:36:23.681Z,96157.00
2018-10-21T23:38:54.451Z,96160.00
2018-10-21T23:41:25.232Z,96160.00
2018-10-21T23:43:56.120Z,96158.00
2018-10-21T23:46:27.380Z,96156.00
2018-10-21T23:48:58.200Z,96160.00
2018-10-21T23:51:29.180Z,96160.00
2018-10-21T23:54:00.054Z,96158.00
2018-10-21T23:56:30.742Z,96155.00
2018-10-21T23:59:01.536Z,96158.00
